Time;durP1;ratioP1;P1;durP2;ratioP2;P2;SDS_P1;SDS_P2;PMS_P1;PMS_P2;Temp;Humidity;BMP_temperature;BMP_pressure;BME280_temperature;BME280_humidity;BME280_pressure;Samples;Min_cycle;Max_cycle;Signal;HPM_P1;HPM_P2
2021/10/06 00:01:00;;;;;;;27.77;21.35;;;11.20;99.90;;;;;;5049160;28;20384;-85
2021/10/06 00:03:26;;;;;;;25.38;20.95;;;11.20;99.90;;;;;;5034947;28;20406;-85
2021/10/06 00:05:52;;;;;;;31.07;23.70;;;11.20;99.90;;;;;;5034980;28;20478;-86
2021/10/06 00:08:18;;;;;;;29.38;21.00;;;11.10;99.90;;;;;;5033807;28;20418;-87
2021/10/06 00:10:44;;;;;;;36.50;23.83;;;11.10;99.90;;;;;;5034306;28;20402;-86
2021/10/06 00:13:12;;;;;;;26.83;20.83;;;11.20;99.90;;;;;;5034746;28;20395;-85
2021/10/06 00:15:38;;;;;;;31.98;22.17;;;11.10;99.90;;;;;;5028658;28;20787;-85
2021/10/06 00:18:03;;;;;;;23.48;19.50;;;11.10;99.90;;;;;;5026705;28;20384;-85
2021/10/06 00:20:29;;;;;;;24.53;18.93;;;11.10;99.90;;;;;;5052753;28;20372;-86
2021/10/06 00:22:55;;;;;;;24.97;19.97;;;11.20;99.90;;;;;;5052248;28;20865;-86
2021/10/06 00:25:20;;;;;;;22.67;18.83;;;11.20;99.90;;;;;;5034580;28;20404;-86
2021/10/06 00:27:47;;;;;;;21.13;18.43;;;11.20;99.90;;;;;;5052376;28;20717;-86
2021/10/06 00:30:13;;;;;;;25.70;18.65;;;11.20;99.90;;;;;;5033194;28;20382;-86
2021/10/06 00:32:38;;;;;;;29.17;19.50;;;11.20;99.90;;;;;;5014568;28;20373;-87
2021/10/06 00:35:04;;;;;;;29.13;21.03;;;11.20;99.90;;;;;;5029269;28;20380;-87
2021/10/06 00:37:30;;;;;;;22.15;18.88;;;11.20;99.90;;;;;;5046911;28;20512;-87
2021/10/06 00:39:56;;;;;;;23.77;19.47;;;11.10;99.90;;;;;;5031940;28;20468;-87
2021/10/06 00:42:21;;;;;;;21.90;18.40;;;11.10;99.90;;;;;;5031254;28;20785;-87
2021/10/06 00:44:47;;;;;;;22.90;18.03;;;11.00;99.90;;;;;;5031500;28;20370;-87
2021/10/06 00:47:13;;;;;;;21.30;16.08;;;10.90;99.90;;;;;;5014247;28;20428;-88
2021/10/06 00:49:40;;;;;;;19.10;15.80;;;10.90;99.90;;;;;;5013995;28;20386;-87
2021/10/06 00:52:06;;;;;;;20.52;17.00;;;10.90;99.90;;;;;;5013414;28;20436;-86
2021/10/06 00:54:32;;;;;;;24.35;16.80;;;10.90;99.90;;;;;;5013477;28;20763;-88
2021/10/06 00:56:58;;;;;;;23.83;18.10;;;10.90;99.90;;;;;;5013828;28;20390;-88
2021/10/06 00:59:24;;;;;;;20.15;16.83;;;10.90;99.90;;;;;;5031828;28;20405;-87
2021/10/06 01:01:49;;;;;;;24.17;17.07;;;10.90;99.90;;;;;;5035747;28;20846;-86
2021/10/06 01:04:15;;;;;;;21.30;17.20;;;10.90;99.90;;;;;;5034647;28;20403;-87
2021/10/06 01:06:41;;;;;;;27.50;18.30;;;10.90;99.90;;;;;;5035548;28;20402;-86
2021/10/06 01:09:06;;;;;;;23.07;17.10;;;10.90;99.90;;;;;;5034120;28;20466;-87
2021/10/06 01:11:32;;;;;;;25.65;18.40;;;10.90;99.90;;;;;;5052936;28;20407;-84
2021/10/06 01:13:58;;;;;;;21.20;17.45;;;10.80;99.90;;;;;;5033100;28;20478;-84
2021/10/06 01:16:24;;;;;;;18.13;16.17;;;10.90;99.90;;;;;;5022692;28;20397;-84
2021/10/06 01:18:50;;;;;;;20.33;17.20;;;10.90;99.90;;;;;;5030918;28;20863;-86
2021/10/06 01:21:18;;;;;;;20.27;16.77;;;11.00;99.90;;;;;;5013690;28;20401;-85
2021/10/06 01:23:46;;;;;;;23.20;17.47;;;11.00;99.90;;;;;;5036813;28;20877;-84
2021/10/06 01:26:18;;;;;;;18.25;15.95;;;11.10;99.90;;;;;;5040367;28;20419;-83
2021/10/06 01:28:45;;;;;;;20.10;16.60;;;11.20;99.90;;;;;;5031015;28;20447;-84
2021/10/06 01:31:10;;;;;;;23.40;17.02;;;11.20;99.90;;;;;;5030942;28;20387;-85
2021/10/06 01:33:36;;;;;;;18.53;16.57;;;11.20;99.90;;;;;;5031099;28;20398;-87
2021/10/06 01:36:02;;;;;;;18.17;16.27;;;11.20;99.90;;;;;;5013197;28;20374;-85
2021/10/06 01:38:27;;;;;;;20.47;16.57;;;11.30;99.90;;;;;;5030135;28;20361;-85
2021/10/06 01:40:53;;;;;;;20.90;16.80;;;11.30;99.90;;;;;;5047817;28;20515;-84
2021/10/06 01:43:18;;;;;;;19.55;15.05;;;11.30;99.90;;;;;;5051597;28;20379;-85
2021/10/06 01:45:44;;;;;;;17.13;14.30;;;11.30;99.90;;;;;;5043977;28;20745;-86
2021/10/06 01:48:11;;;;;;;16.88;14.95;;;11.40;99.90;;;;;;5031117;28;20392;-85
2021/10/06 01:50:41;;;;;;;17.70;15.27;;;11.50;99.90;;;;;;5014035;28;20384;-84
2021/10/06 01:53:08;;;;;;;18.70;15.70;;;11.50;99.90;;;;;;5034557;28;20488;-85
2021/10/06 01:55:34;;;;;;;16.75;14.73;;;11.50;99.90;;;;;;5036022;28;20371;-83
2021/10/06 01:58:02;;;;;;;20.50;15.95;;;11.50;99.90;;;;;;5036394;28;20800;-85
2021/10/06 02:00:28;;;;;;;20.02;16.63;;;11.60;99.90;;;;;;5027232;28;20381;-83
2021/10/06 02:02:55;;;;;;;17.73;15.90;;;11.60;99.90;;;;;;5025301;28;20380;-86
2021/10/06 02:05:21;;;;;;;17.77;15.57;;;11.70;99.90;;;;;;5016335;28;20366;-84
2021/10/06 02:07:47;;;;;;;19.35;16.30;;;11.80;99.90;;;;;;5034329;28;20427;-84
2021/10/06 02:10:13;;;;;;;19.17;16.17;;;11.90;99.90;;;;;;5016912;28;20381;-84
2021/10/06 02:12:38;;;;;;;18.93;16.30;;;11.90;99.90;;;;;;5033886;28;20365;-83
2021/10/06 02:15:05;;;;;;;22.53;17.57;;;12.00;99.90;;;;;;5051804;28;20448;-85
2021/10/06 02:17:31;;;;;;;19.10;17.10;;;12.00;99.90;;;;;;5036387;28;20395;-84
2021/10/06 02:19:57;;;;;;;20.02;17.73;;;12.00;99.90;;;;;;5019095;28;20883;-84
2021/10/06 02:22:22;;;;;;;24.42;18.92;;;12.00;99.90;;;;;;5033678;28;20887;-84
2021/10/06 02:24:48;;;;;;;22.27;18.57;;;12.00;99.90;;;;;;5016059;28;20460;-85
2021/10/06 02:27:14;;;;;;;19.77;17.77;;;12.10;99.90;;;;;;5018918;28;20375;-82
2021/10/06 02:29:39;;;;;;;21.27;18.27;;;12.20;99.90;;;;;;5053700;28;20371;-85
2021/10/06 02:32:05;;;;;;;21.17;18.67;;;12.30;99.90;;;;;;5053435;28;20963;-86
2021/10/06 02:34:31;;;;;;;20.52;18.30;;;12.20;99.90;;;;;;5035643;28;20781;-84
2021/10/06 02:36:57;;;;;;;21.40;18.92;;;12.30;99.90;;;;;;5053536;28;20364;-86
2021/10/06 02:39:22;;;;;;;21.57;18.73;;;12.30;99.90;;;;;;5035541;28;20394;-86
2021/10/06 02:41:48;;;;;;;22.17;19.73;;;12.30;99.90;;;;;;5026674;28;20381;-84
2021/10/06 02:44:14;;;;;;;18.95;17.05;;;12.30;99.90;;;;;;5016116;28;20417;-85
2021/10/06 02:46:39;;;;;;;20.63;18.42;;;12.50;99.90;;;;;;5018243;28;20792;-84
2021/10/06 02:49:05;;;;;;;21.20;18.90;;;12.50;99.90;;;;;;5036004;28;20388;-85
2021/10/06 02:51:32;;;;;;;23.88;20.58;;;12.40;99.90;;;;;;5035792;28;20378;-85
2021/10/06 02:53:57;;;;;;;21.95;19.63;;;12.40;99.90;;;;;;5035404;28;20407;-84
2021/10/06 02:56:23;;;;;;;20.67;18.50;;;12.50;99.90;;;;;;5021237;28;20385;-84
2021/10/06 02:58:49;;;;;;;22.33;19.00;;;12.60;99.90;;;;;;5033072;28;20409;-84
2021/10/06 03:01:14;;;;;;;22.97;19.13;;;12.60;99.90;;;;;;5015410;28;20378;-85
2021/10/06 03:03:40;;;;;;;22.27;19.03;;;12.70;99.90;;;;;;5014972;28;20408;-86
2021/10/06 03:06:06;;;;;;;23.42;19.27;;;12.70;99.90;;;;;;5015692;28;20389;-86
2021/10/06 03:08:31;;;;;;;21.03;18.93;;;12.80;99.90;;;;;;5016098;28;20428;-83
2021/10/06 03:10:57;;;;;;;23.03;19.43;;;12.80;99.90;;;;;;5032891;28;20784;-84
2021/10/06 03:13:22;;;;;;;22.92;18.98;;;12.80;99.90;;;;;;5014894;28;20945;-83
2021/10/06 03:15:51;;;;;;;23.07;20.07;;;12.80;99.90;;;;;;5015188;28;20374;-85
2021/10/06 03:18:16;;;;;;;20.92;18.80;;;12.70;99.90;;;;;;5014981;28;20385;-84
2021/10/06 03:20:42;;;;;;;20.63;18.52;;;12.80;99.90;;;;;;5015397;28;20449;-84
2021/10/06 03:23:08;;;;;;;22.23;19.00;;;12.80;99.90;;;;;;5043662;28;20742;-85
2021/10/06 03:25:34;;;;;;;18.63;16.73;;;12.70;99.90;;;;;;5034467;28;20388;-87
2021/10/06 03:28:00;;;;;;;18.85;16.85;;;12.70;99.90;;;;;;5052211;28;20511;-84
2021/10/06 03:30:26;;;;;;;18.25;16.48;;;12.80;99.90;;;;;;5034559;28;20397;-84
2021/10/06 03:32:51;;;;;;;19.03;16.10;;;12.80;99.90;;;;;;5034541;28;20380;-85
2021/10/06 03:35:18;;;;;;;17.45;15.45;;;12.90;99.90;;;;;;5034675;28;20888;-85
2021/10/06 03:37:47;;;;;;;19.27;16.13;;;12.90;99.90;;;;;;5018445;28;20479;-85
2021/10/06 03:40:14;;;;;;;17.35;15.55;;;12.90;99.90;;;;;;5014705;28;20393;-85
2021/10/06 03:42:39;;;;;;;15.75;14.15;;;12.80;99.90;;;;;;5032439;28;20362;-86
2021/10/06 03:45:08;;;;;;;17.15;14.63;;;12.90;99.90;;;;;;5014641;28;20381;-86
2021/10/06 03:47:33;;;;;;;15.35;13.95;;;13.00;99.90;;;;;;5014288;28;20936;-88
2021/10/06 03:49:59;;;;;;;14.68;13.18;;;13.00;99.90;;;;;;5015546;28;20438;-86
2021/10/06 03:52:25;;;;;;;14.67;13.27;;;13.00;99.90;;;;;;5052154;28;20753;-86
2021/10/06 03:54:50;;;;;;;15.23;13.32;;;13.00;99.90;;;;;;5016928;28;20412;-85
2021/10/06 03:57:16;;;;;;;15.43;13.93;;;13.10;99.90;;;;;;5031833;28;20472;-85
2021/10/06 03:59:42;;;;;;;15.20;13.70;;;13.00;99.90;;;;;;5014299;28;20763;-87
2021/10/06 04:02:08;;;;;;;16.30;14.32;;;13.00;99.90;;;;;;5014717;28;20373;-85
2021/10/06 04:04:34;;;;;;;15.23;13.63;;;13.00;99.90;;;;;;5039072;28;20396;-84
2021/10/06 04:07:00;;;;;;;15.07;13.57;;;13.00;99.90;;;;;;5035087;28;20474;-84
2021/10/06 04:09:25;;;;;;;14.85;13.35;;;13.00;99.90;;;;;;5052208;28;20433;-86
2021/10/06 04:11:51;;;;;;;14.47;13.00;;;13.00;99.90;;;;;;5034702;28;20437;-84
2021/10/06 04:14:16;;;;;;;15.15;13.75;;;13.00;99.90;;;;;;5052228;28;20399;-86
2021/10/06 04:16:42;;;;;;;13.27;11.97;;;13.00;99.90;;;;;;5033095;28;20403;-84
2021/10/06 04:19:07;;;;;;;12.80;11.60;;;13.00;99.90;;;;;;5043406;28;20890;-84
2021/10/06 04:21:33;;;;;;;15.10;13.17;;;13.10;99.90;;;;;;5048124;28;20378;-85
2021/10/06 04:23:59;;;;;;;13.10;11.80;;;13.00;99.90;;;;;;5033899;28;20383;-86
2021/10/06 04:26:24;;;;;;;13.38;12.15;;;13.00;99.90;;;;;;5034057;28;20371;-86
2021/10/06 04:28:50;;;;;;;14.57;12.93;;;12.90;99.90;;;;;;5034117;28;20941;-86
2021/10/06 04:31:19;;;;;;;14.07;12.60;;;12.90;99.90;;;;;;5051653;28;20387;-85
2021/10/06 04:33:48;;;;;;;14.10;12.68;;;12.90;99.90;;;;;;5033341;28;20396;-84
2021/10/06 04:36:14;;;;;;;13.98;12.63;;;12.90;99.90;;;;;;5051871;28;20389;-84
2021/10/06 04:38:40;;;;;;;14.18;12.70;;;12.90;99.90;;;;;;5051596;28;20367;-86
2021/10/06 04:41:06;;;;;;;14.30;12.82;;;12.80;99.90;;;;;;5051403;28;21029;-86
2021/10/06 04:43:32;;;;;;;14.45;12.27;;;12.80;99.90;;;;;;5027281;28;20392;-88
2021/10/06 04:45:57;;;;;;;21.27;13.88;;;12.80;99.90;;;;;;5032244;28;20373;-87
2021/10/06 04:48:23;;;;;;;14.20;12.70;;;12.80;99.90;;;;;;5023823;28;20384;-87
2021/10/06 04:50:49;;;;;;;17.02;12.52;;;12.70;99.90;;;;;;5052144;28;20405;-88
2021/10/06 04:53:14;;;;;;;14.07;12.57;;;12.70;99.90;;;;;;5033924;28;20457;-88
2021/10/06 04:55:40;;;;;;;14.70;11.95;;;12.70;99.90;;;;;;5033956;28;20426;-87
2021/10/06 04:58:05;;;;;;;13.48;12.07;;;12.60;99.90;;;;;;5044623;28;20413;-88
2021/10/06 05:00:31;;;;;;;14.00;12.50;;;12.50;99.90;;;;;;5045715;28;20860;-90
2021/10/06 05:03:13;;;;;;;13.82;12.45;;;12.40;99.90;;;;;;5033938;28;20434;-89
2021/10/06 05:05:40;;;;;;;15.00;12.25;;;12.30;99.90;;;;;;5051341;28;20414;-89
2021/10/06 05:08:07;;;;;;;13.40;12.07;;;12.20;99.90;;;;;;5051102;28;20375;-84
2021/10/06 05:10:33;;;;;;;14.23;12.77;;;12.10;99.90;;;;;;5033622;28;20475;-85
2021/10/06 05:12:59;;;;;;;15.17;12.67;;;12.00;99.90;;;;;;5034744;28;20376;-86
2021/10/06 05:15:25;;;;;;;16.53;14.67;;;11.90;99.90;;;;;;5033954;28;20386;-85
2021/10/06 05:17:50;;;;;;;15.20;13.60;;;11.80;99.90;;;;;;5033478;28;20386;-85
2021/10/06 05:20:16;;;;;;;16.85;13.52;;;11.80;99.90;;;;;;5034026;28;20372;-85
2021/10/06 05:22:41;;;;;;;15.33;13.83;;;11.60;99.90;;;;;;5033935;28;20368;-86
2021/10/06 05:25:08;;;;;;;15.87;13.50;;;11.60;99.90;;;;;;5034096;28;20394;-86
2021/10/06 05:27:33;;;;;;;15.15;13.68;;;11.50;99.90;;;;;;5033846;28;20420;-86
2021/10/06 05:30:01;;;;;;;16.08;14.38;;;11.40;99.90;;;;;;5046289;28;20472;-83
2021/10/06 05:32:27;;;;;;;16.17;13.65;;;11.40;99.90;;;;;;5013954;28;20381;-85
2021/10/06 05:34:52;;;;;;;13.77;12.38;;;11.30;99.90;;;;;;5031061;28;20404;-84
2021/10/06 05:37:18;;;;;;;14.25;12.77;;;11.20;99.90;;;;;;5031645;28;20412;-86
2021/10/06 05:39:44;;;;;;;15.03;13.43;;;11.20;99.90;;;;;;5030564;28;20900;-86
2021/10/06 05:42:09;;;;;;;15.07;12.63;;;11.10;99.90;;;;;;5051152;28;20419;-85
2021/10/06 05:44:35;;;;;;;13.63;12.23;;;11.10;99.90;;;;;;5049852;28;20387;-85
2021/10/06 05:47:01;;;;;;;18.38;14.05;;;11.10;99.90;;;;;;5050623;28;20384;-86
2021/10/06 05:49:26;;;;;;;16.93;13.70;;;11.00;99.90;;;;;;5051484;28;20459;-85
2021/10/06 05:51:52;;;;;;;15.65;14.02;;;11.00;99.90;;;;;;5051256;28;20375;-84
2021/10/06 05:54:18;;;;;;;16.20;12.90;;;11.00;99.90;;;;;;5051315;28;20478;-84
2021/10/06 05:56:43;;;;;;;15.40;13.90;;;11.00;99.90;;;;;;5033381;28;20419;-86
2021/10/06 05:59:09;;;;;;;16.08;14.45;;;10.90;99.90;;;;;;5050501;28;20382;-86
2021/10/06 06:01:35;;;;;;;25.33;15.55;;;11.00;99.90;;;;;;5051144;28;20376;-84
2021/10/06 06:04:00;;;;;;;121.50;27.63;;;10.90;99.90;;;;;;5032779;28;20390;-86
2021/10/06 06:06:26;;;;;;;35.80;19.25;;;11.00;99.90;;;;;;5033190;28;20372;-86
2021/10/06 06:08:51;;;;;;;150.67;32.33;;;11.10;99.90;;;;;;5033010;28;20372;-85
2021/10/06 06:11:17;;;;;;;801.37;114.23;;;11.10;99.90;;;;;;5031808;28;20426;-86
2021/10/06 06:13:43;;;;;;;295.30;50.95;;;11.20;99.90;;;;;;5013264;28;20396;-85
2021/10/06 06:16:09;;;;;;;24.20;15.27;;;11.40;99.90;;;;;;5021088;28;20380;-83
2021/10/06 06:18:34;;;;;;;15.52;12.77;;;11.50;99.90;;;;;;5050973;28;20368;-86
2021/10/06 06:21:00;;;;;;;14.88;12.50;;;11.60;99.90;;;;;;5034086;28;20463;-84
2021/10/06 06:23:28;;;;;;;15.00;13.40;;;11.70;99.90;;;;;;5045660;28;20377;-84
2021/10/06 06:25:54;;;;;;;14.07;11.07;;;11.80;99.90;;;;;;5014465;28;20864;-83
2021/10/06 06:28:19;;;;;;;11.10;9.93;;;11.90;99.90;;;;;;5013803;28;20381;-84
2021/10/06 06:30:45;;;;;;;11.00;8.80;;;12.00;99.90;;;;;;5015221;28;20385;-84
2021/10/06 06:33:10;;;;;;;11.07;8.37;;;12.10;99.90;;;;;;5024027;28;20397;-84
2021/10/06 06:35:36;;;;;;;10.13;8.10;;;12.20;99.90;;;;;;5030777;28;20812;-85
2021/10/06 06:38:02;;;;;;;10.25;7.78;;;12.20;99.90;;;;;;5013665;28;21233;-82
2021/10/06 06:40:28;;;;;;;9.03;7.37;;;12.30;99.90;;;;;;5018427;28;20743;-85
2021/10/06 06:42:53;;;;;;;7.47;6.57;;;12.40;99.90;;;;;;5049854;28;20901;-83
2021/10/06 06:45:19;;;;;;;8.40;6.00;;;12.50;99.90;;;;;;5037045;28;20403;-84
2021/10/06 06:47:44;;;;;;;8.33;5.10;;;12.60;99.90;;;;;;5033711;28;20387;-84
2021/10/06 06:50:13;;;;;;;8.73;5.38;;;12.80;99.90;;;;;;5031676;28;20379;-84
2021/10/06 06:52:40;;;;;;;8.38;4.68;;;12.80;99.90;;;;;;5053179;28;20374;-84
2021/10/06 06:55:08;;;;;;;7.78;4.60;;;12.90;99.90;;;;;;5034979;28;20479;-83
2021/10/06 06:57:34;;;;;;;6.43;3.58;;;13.00;99.90;;;;;;5051622;28;20387;-84
2021/10/06 06:59:59;;;;;;;4.50;3.25;;;13.00;99.90;;;;;;5034975;28;20912;-86
2021/10/06 07:02:25;;;;;;;5.83;3.43;;;13.20;99.90;;;;;;5052912;28;20374;-82
2021/10/06 07:04:50;;;;;;;6.43;3.80;;;13.30;99.90;;;;;;5052763;28;20383;-84
2021/10/06 07:07:17;;;;;;;4.72;3.38;;;13.30;99.90;;;;;;5052451;28;20853;-85
2021/10/06 07:09:49;;;;;;;5.05;3.40;;;13.30;99.90;;;;;;5054766;28;20381;-84
2021/10/06 07:12:20;;;;;;;4.68;3.10;;;13.40;99.90;;;;;;5043391;28;20400;-84
2021/10/06 07:14:47;;;;;;;5.45;3.17;;;13.50;99.90;;;;;;5043616;28;20903;-84
2021/10/06 07:17:13;;;;;;;5.30;2.90;;;13.60;99.90;;;;;;5019888;28;20502;-84
2021/10/06 07:19:40;;;;;;;4.85;3.20;;;13.60;99.90;;;;;;5032722;28;20378;-86
2021/10/06 07:22:06;;;;;;;5.72;3.35;;;13.80;99.90;;;;;;5014775;28;20428;-86
2021/10/06 07:24:32;;;;;;;4.88;3.10;;;13.80;99.90;;;;;;5032403;28;20382;-86
2021/10/06 07:26:58;;;;;;;7.95;3.20;;;13.90;99.90;;;;;;5032584;28;20782;-85
2021/10/06 07:29:23;;;;;;;5.73;3.03;;;13.90;99.90;;;;;;5032832;28;20365;-86
2021/10/06 07:31:49;;;;;;;3.73;2.63;;;14.10;99.90;;;;;;5032621;28;20373;-84
2021/10/06 07:34:15;;;;;;;7.55;3.20;;;14.00;99.90;;;;;;5014796;28;20406;-83
2021/10/06 07:36:40;;;;;;;3.97;2.30;;;14.10;99.90;;;;;;5014687;28;20389;-85
2021/10/06 07:39:06;;;;;;;5.30;2.40;;;14.30;99.90;;;;;;5014771;28;20369;-86
2021/10/06 07:41:33;;;;;;;5.53;2.53;;;14.40;99.90;;;;;;5032527;28;20374;-85
2021/10/06 07:43:58;;;;;;;5.95;2.35;;;14.40;99.90;;;;;;5014837;28;20876;-85
2021/10/06 07:46:24;;;;;;;5.07;2.13;;;14.50;99.90;;;;;;5031998;28;20816;-85
2021/10/06 07:48:50;;;;;;;3.83;2.13;;;14.60;99.90;;;;;;5014749;28;20417;-86
2021/10/06 07:51:16;;;;;;;4.33;1.80;;;14.80;99.90;;;;;;5030879;28;20380;-86
2021/10/06 07:53:41;;;;;;;4.07;1.90;;;14.80;99.90;;;;;;5032542;28;20386;-84
2021/10/06 07:56:07;;;;;;;4.87;2.20;;;14.90;99.90;;;;;;5014541;28;20701;-86
2021/10/06 07:58:32;;;;;;;3.60;2.00;;;14.90;99.90;;;;;;5032452;28;20381;-83
2021/10/06 08:00:58;;;;;;;4.25;1.70;;;14.90;99.90;;;;;;5031867;28;20985;-86
2021/10/06 08:03:23;;;;;;;5.37;1.80;;;14.90;99.90;;;;;;5014624;28;20404;-86
2021/10/06 08:05:52;;;;;;;2.60;1.77;;;15.00;99.90;;;;;;5015355;28;20377;-86
2021/10/06 08:08:26;;;;;;;5.97;1.95;;;15.10;99.90;;;;;;5027205;28;20383;-85
2021/10/06 08:10:54;;;;;;;3.63;1.80;;;15.20;99.90;;;;;;5013898;28;20381;-86
2021/10/06 08:13:23;;;;;;;5.13;1.92;;;15.30;99.90;;;;;;5018119;28;20396;-86
2021/10/06 08:15:50;;;;;;;3.75;1.80;;;15.40;99.90;;;;;;5030021;28;20408;-85
2021/10/06 08:18:20;;;;;;;2.95;1.85;;;15.50;99.90;;;;;;5031370;28;20464;-86
2021/10/06 08:20:56;;;;;;;3.10;1.80;;;15.50;99.90;;;;;;5039109;28;20389;-87
2021/10/06 08:23:22;;;;;;;5.03;1.90;;;15.60;99.90;;;;;;5031606;28;20851;-84
2021/10/06 08:25:49;;;;;;;4.93;2.00;;;15.70;99.90;;;;;;5013933;28;20382;-85
2021/10/06 08:28:15;;;;;;;3.33;1.60;;;15.90;99.90;;;;;;5052503;28;20707;-85
2021/10/06 08:30:41;;;;;;;4.50;1.77;;;16.00;99.90;;;;;;5050978;28;20762;-85
2021/10/06 08:33:12;;;;;;;4.43;1.50;;;16.00;99.90;;;;;;5033618;28;20396;-84
2021/10/06 08:35:38;;;;;;;6.45;1.80;;;15.90;99.90;;;;;;5033350;28;20372;-86
2021/10/06 08:38:05;;;;;;;3.05;1.35;;;15.90;99.90;;;;;;5047541;28;20387;-85
2021/10/06 08:40:33;;;;;;;7.00;1.40;;;15.90;99.90;;;;;;5033764;28;20371;-86
2021/10/06 08:43:03;;;;;;;3.95;1.65;;;16.00;99.90;;;;;;5051005;28;20399;-85
2021/10/06 08:45:28;;;;;;;2.97;1.50;;;16.10;99.90;;;;;;5029033;28;20379;-85
2021/10/06 08:47:56;;;;;;;3.33;1.70;;;16.20;99.90;;;;;;5032932;28;20375;-85
2021/10/06 08:50:22;;;;;;;5.95;1.85;;;16.20;99.90;;;;;;5033373;28;20454;-85
2021/10/06 08:52:51;;;;;;;5.10;1.80;;;16.20;99.90;;;;;;5051052;28;20412;-85
2021/10/06 08:55:28;;;;;;;3.88;1.50;;;16.30;99.90;;;;;;5050000;28;20450;-85
2021/10/06 08:58:06;;;;;;;4.93;1.60;;;16.20;99.90;;;;;;5046847;28;20384;-85
2021/10/06 09:00:56;;;;;;;3.53;1.80;;;16.40;99.90;;;;;;5051023;28;20372;-87
2021/10/06 09:03:30;;;;;;;4.00;1.33;;;16.30;99.90;;;;;;5049937;28;20438;-86
2021/10/06 09:06:10;;;;;;;6.45;1.63;;;16.40;99.90;;;;;;5051298;28;20386;-85
2021/10/06 09:08:37;;;;;;;6.25;1.80;;;16.50;99.90;;;;;;5032373;28;20905;-86
2021/10/06 09:11:04;;;;;;;5.47;1.40;;;16.60;99.90;;;;;;5032864;28;20403;-86
2021/10/06 09:13:33;;;;;;;5.32;1.50;;;16.70;99.90;;;;;;5032435;28;20396;-85
2021/10/06 09:15:59;;;;;;;4.35;1.55;;;16.70;99.90;;;;;;5050564;28;20375;-85
2021/10/06 09:18:27;;;;;;;3.20;1.13;;;16.70;99.90;;;;;;5050332;28;20459;-83
2021/10/06 09:21:04;;;;;;;4.57;1.60;;;16.90;99.90;;;;;;5032657;28;20403;-86
2021/10/06 09:23:34;;;;;;;5.17;2.07;;;16.90;99.90;;;;;;5049897;28;20445;-86
2021/10/06 09:26:02;;;;;;;3.03;1.40;;;17.00;99.90;;;;;;5029708;28;20422;-84
2021/10/06 09:28:33;;;;;;;3.53;1.50;;;16.90;99.90;;;;;;5036815;28;20502;-85
2021/10/06 09:31:18;;;;;;;2.78;1.40;;;17.00;99.90;;;;;;5045181;28;20433;-84
2021/10/06 09:33:50;;;;;;;3.95;1.40;;;16.90;99.90;;;;;;5046665;28;21012;-85
2021/10/06 09:36:35;;;;;;;3.80;1.70;;;16.90;99.90;;;;;;5044232;28;20389;-85
2021/10/06 09:39:07;;;;;;;3.80;1.47;;;16.90;99.90;;;;;;5030401;28;20408;-85
2021/10/06 09:41:37;;;;;;;4.68;1.55;;;17.00;99.90;;;;;;5020999;28;20375;-84
2021/10/06 09:44:07;;;;;;;5.50;1.45;;;16.90;99.90;;;;;;5025727;28;20456;-84
2021/10/06 09:46:55;;;;;;;5.18;1.38;;;16.70;99.90;;;;;;5032292;28;20411;-84
2021/10/06 09:49:24;;;;;;;4.00;1.40;;;16.70;99.90;;;;;;5049833;28;20877;-85
2021/10/06 09:51:52;;;;;;;4.50;1.40;;;16.90;99.90;;;;;;5049762;28;20380;-85
2021/10/06 09:54:19;;;;;;;3.97;1.65;;;17.30;99.90;;;;;;5029124;28;20397;-85
2021/10/06 09:56:47;;;;;;;2.97;1.60;;;17.50;99.90;;;;;;5020645;28;20391;-85
2021/10/06 09:59:14;;;;;;;2.57;1.40;;;17.60;99.90;;;;;;5018566;28;20377;-86
2021/10/06 10:01:48;;;;;;;2.83;1.20;;;17.90;99.90;;;;;;5032173;28;20461;-84
2021/10/06 10:04:14;;;;;;;2.97;1.27;;;18.20;99.90;;;;;;5048815;28;20386;-86
2021/10/06 10:06:42;;;;;;;2.80;1.08;;;18.30;99.90;;;;;;5030641;28;20377;-86
2021/10/06 10:09:09;;;;;;;2.50;1.20;;;18.30;99.90;;;;;;5054682;28;20388;-85
2021/10/06 10:11:37;;;;;;;3.30;1.30;;;18.30;99.90;;;;;;5051932;28;21196;-86
2021/10/06 10:14:07;;;;;;;3.60;1.10;;;18.40;99.90;;;;;;5070348;28;20894;-84
2021/10/06 10:16:39;;;;;;;3.25;1.40;;;18.60;99.90;;;;;;5071983;28;20759;-86
2021/10/06 10:19:12;;;;;;;4.97;1.40;;;18.70;99.90;;;;;;5053355;28;20422;-85
2021/10/06 10:21:52;;;;;;;4.93;1.20;;;18.50;99.90;;;;;;5053053;28;20947;-85
2021/10/06 10:24:26;;;;;;;3.65;1.52;;;18.20;99.90;;;;;;5053867;28;20378;-85
2021/10/06 10:27:05;;;;;;;4.80;1.70;;;17.90;99.90;;;;;;5035493;28;20392;-85
2021/10/06 10:29:51;;;;;;;3.17;1.35;;;17.80;99.90;;;;;;5027115;28;20472;-86
2021/10/06 10:32:45;;;;;;;3.97;1.27;;;17.80;99.90;;;;;;5016229;28;20397;-87
2021/10/06 10:35:21;;;;;;;2.78;1.40;;;18.10;99.90;;;;;;5031882;28;20396;-87
2021/10/06 10:37:52;;;;;;;4.30;1.40;;;18.20;99.90;;;;;;5035031;28;20375;-85
2021/10/06 10:40:38;;;;;;;3.88;1.52;;;18.30;99.90;;;;;;5034369;28;20372;-86
2021/10/06 10:43:11;;;;;;;5.32;1.45;;;18.30;99.90;;;;;;5055002;28;20872;-87
2021/10/06 10:45:56;;;;;;;3.28;1.25;;;18.40;99.90;;;;;;5037118;28;20408;-84
2021/10/06 10:48:24;;;;;;;2.80;1.40;;;18.30;99.90;;;;;;5052622;28;20402;-84
2021/10/06 10:50:50;;;;;;;3.70;1.20;;;18.60;99.90;;;;;;5035659;28;20787;-84
2021/10/06 10:53:50;;;;;;;2.73;1.20;;;18.60;99.90;;;;;;5046367;28;20467;-86
2021/10/06 10:56:34;;;;;;;6.32;1.30;;;18.60;99.90;;;;;;5035001;28;21292;-84
2021/10/06 10:59:14;;;;;;;2.60;1.30;;;18.60;99.90;;;;;;5034618;28;20453;-87
2021/10/06 11:01:47;;;;;;;3.33;1.33;;;18.50;99.90;;;;;;5035277;28;20833;-86
2021/10/06 11:04:16;;;;;;;3.40;1.30;;;18.60;99.90;;;;;;5034822;28;20387;-86
2021/10/06 11:06:48;;;;;;;3.88;1.40;;;18.50;99.90;;;;;;5034989;28;20376;-85
2021/10/06 11:09:32;;;;;;;3.08;1.20;;;18.50;99.90;;;;;;5032802;28;20383;-86
2021/10/06 11:12:06;;;;;;;3.43;1.40;;;18.50;99.90;;;;;;5052787;28;20414;-86
2021/10/06 11:14:33;;;;;;;3.42;1.50;;;18.30;99.90;;;;;;5052220;28;20453;-86
2021/10/06 11:17:19;;;;;;;6.05;1.60;;;18.10;99.90;;;;;;5034049;28;20917;-85
2021/10/06 11:19:46;;;;;;;4.15;1.35;;;17.80;99.90;;;;;;5023862;28;20385;-86
2021/10/06 11:22:24;;;;;;;4.90;1.20;;;17.60;99.90;;;;;;5014853;28;20408;-86
2021/10/06 11:25:01;;;;;;;4.53;1.50;;;17.60;99.90;;;;;;5015216;28;20422;-86
2021/10/06 11:27:29;;;;;;;3.10;1.38;;;17.50;99.90;;;;;;5013731;28;20382;-85
2021/10/06 11:29:57;;;;;;;3.95;1.48;;;17.70;99.90;;;;;;5014428;28;20381;-85
2021/10/06 11:32:22;;;;;;;3.30;1.27;;;17.90;99.90;;;;;;5027813;28;20368;-85
2021/10/06 11:34:49;;;;;;;3.03;1.30;;;17.90;99.90;;;;;;5034053;28;20762;-85
2021/10/06 11:37:17;;;;;;;3.30;1.20;;;18.10;99.90;;;;;;5016110;28;20373;-85
2021/10/06 11:39:43;;;;;;;4.00;1.20;;;18.30;99.90;;;;;;5014160;28;20378;-86
2021/10/06 11:42:09;;;;;;;5.65;1.63;;;18.50;99.90;;;;;;5014686;28;20520;-85
2021/10/06 11:44:38;;;;;;;4.70;1.30;;;18.60;99.90;;;;;;5031607;28;20373;-86
2021/10/06 11:47:12;;;;;;;4.17;1.73;;;18.50;99.90;;;;;;5031672;28;20374;-85
2021/10/06 11:49:40;;;;;;;4.13;1.42;;;18.60;99.90;;;;;;5016526;28;20458;-85
2021/10/06 11:52:07;;;;;;;4.10;1.40;;;18.80;99.90;;;;;;5053564;28;20380;-85
2021/10/06 11:54:33;;;;;;;4.70;1.45;;;18.80;99.90;;;;;;5035965;28;20391;-86
2021/10/06 11:57:01;;;;;;;3.25;1.30;;;18.90;99.90;;;;;;5044752;28;20922;-85
2021/10/06 11:59:31;;;;;;;4.27;1.30;;;18.90;99.90;;;;;;5014859;28;20392;-85
2021/10/06 12:01:58;;;;;;;3.53;1.20;;;18.70;99.90;;;;;;5032830;28;20404;-85
2021/10/06 12:04:27;;;;;;;2.97;1.27;;;18.60;99.90;;;;;;5014310;28;20393;-87
2021/10/06 12:06:59;;;;;;;5.00;1.63;;;18.50;99.90;;;;;;4998641;28;20751;-86
2021/10/06 12:09:36;;;;;;;7.35;1.40;;;18.30;99.90;;;;;;5045878;28;20380;-85
2021/10/06 12:12:10;;;;;;;3.15;1.23;;;18.20;99.90;;;;;;5045266;28;20391;-86
2021/10/06 12:14:46;;;;;;;3.53;1.70;;;18.20;99.90;;;;;;5020284;28;20405;-85
2021/10/06 12:17:22;;;;;;;3.28;1.05;;;18.30;99.90;;;;;;5019787;28;20379;-87
2021/10/06 12:19:58;;;;;;;5.40;1.50;;;18.20;99.90;;;;;;5032986;28;20419;-86
2021/10/06 12:22:34;;;;;;;2.70;1.40;;;18.20;99.90;;;;;;5033860;28;20514;-85
2021/10/06 12:25:05;;;;;;;5.88;1.85;;;18.20;99.90;;;;;;5043241;28;20416;-86
2021/10/06 12:27:33;;;;;;;2.10;1.00;;;18.10;99.90;;;;;;5048229;28;20399;-85
2021/10/06 12:30:12;;;;;;;3.55;1.38;;;18.00;99.90;;;;;;5051031;28;20462;-86
2021/10/06 12:32:42;;;;;;;3.25;1.33;;;18.10;99.90;;;;;;5033487;28;20384;-85
2021/10/06 12:35:11;;;;;;;8.90;1.70;;;18.10;99.90;;;;;;5050455;28;20434;-87
2021/10/06 12:37:52;;;;;;;4.93;1.60;;;18.00;99.90;;;;;;5047259;28;20378;-85
2021/10/06 12:40:30;;;;;;;3.33;1.25;;;18.10;99.90;;;;;;5049947;28;20379;-85